createdAt,value
2018-09-01T00:00:29.868Z,58.30
2018-09-01T00:02:58.703Z,58.40
2018-09-01T00:05:27.292Z,58.10
2018-09-01T00:07:55.966Z,58.30
2018-09-01T00:10:24.648Z,58.30
2018-09-01T00:12:53.034Z,58.20
2018-09-01T00:15:21.371Z,58.20
2018-09-01T00:17:49.739Z,58.30
2018-09-01T00:20:18.164Z,58.30
2018-09-01T00:22:46.572Z,58.30
2018-09-01T00:25:14.924Z,58.50
2018-09-01T00:27:43.428Z,58.50
2018-09-01T00:30:11.779Z,58.60
2018-09-01T00:32:40.228Z,58.60
2018-09-01T00:35:08.604Z,58.70
2018-09-01T00:37:42.197Z,58.70
2018-09-01T00:40:10.627Z,58.80
2018-09-01T00:42:39.142Z,59.00
2018-09-01T00:45:07.647Z,58.90
2018-09-01T00:47:36.006Z,59.00
2018-09-01T00:50:04.501Z,58.90
2018-09-01T00:52:32.876Z,59.00
2018-09-01T00:55:01.727Z,59.00
2018-09-01T00:57:30.586Z,58.80
2018-09-01T00:59:59.291Z,59.30
2018-09-01T01:02:28.109Z,59.40
2018-09-01T01:04:56.703Z,59.50
2018-09-01T01:07:25.195Z,59.70
2018-09-01T01:09:54.037Z,59.90
2018-09-01T01:12:22.409Z,60.70
2018-09-01T01:14:50.765Z,60.00
2018-09-01T01:17:19.307Z,60.10
2018-09-01T01:19:48.007Z,60.30
2018-09-01T01:22:17.342Z,60.30
2018-09-01T01:24:46.658Z,60.90
2018-09-01T01:27:16.070Z,60.30
2018-09-01T01:29:45.023Z,60.50
2018-09-01T01:32:13.801Z,60.60
2018-09-01T01:34:42.512Z,61.40
2018-09-01T01:37:11.323Z,60.80
2018-09-01T01:39:39.785Z,60.80
2018-09-01T01:42:08.258Z,60.70
2018-09-01T01:44:36.739Z,60.90
2018-09-01T01:47:05.490Z,60.90
2018-09-01T01:49:34.896Z,60.80
2018-09-01T01:52:04.545Z,61.00
2018-09-01T01:54:34.127Z,61.10
2018-09-01T01:57:03.627Z,61.10
2018-09-01T01:59:33.669Z,61.30
2018-09-01T02:02:02.957Z,61.40
2018-09-01T02:04:32.569Z,61.30
2018-09-01T02:07:00.954Z,61.50
2018-09-01T02:09:29.346Z,61.50
2018-09-01T02:11:57.733Z,61.40
2018-09-01T02:14:26.122Z,61.30
2018-09-01T02:16:54.566Z,61.20
2018-09-01T02:19:22.954Z,61.40
2018-09-01T02:21:51.309Z,61.70
2018-09-01T02:24:19.670Z,61.70
2018-09-01T02:26:48.132Z,61.70
2018-09-01T02:29:16.482Z,61.70
2018-09-01T02:31:44.838Z,61.80
2018-09-01T02:34:13.222Z,61.70
2018-09-01T02:36:41.934Z,61.80
2018-09-01T02:39:10.278Z,62.00
2018-09-01T02:41:38.659Z,61.90
2018-09-01T02:44:07.910Z,61.90
2018-09-01T02:46:36.263Z,62.10
2018-09-01T02:49:04.683Z,62.00
2018-09-01T02:51:33.177Z,62.10
2018-09-01T02:54:01.586Z,62.80
2018-09-01T02:56:29.975Z,62.20
2018-09-01T02:58:58.330Z,62.00
2018-09-01T03:01:32.231Z,62.10
2018-09-01T03:04:00.751Z,62.20
2018-09-01T03:06:39.092Z,62.30
2018-09-01T03:09:07.725Z,62.20
2018-09-01T03:11:36.128Z,62.20
2018-09-01T03:14:04.490Z,62.30
2018-09-01T03:16:32.985Z,62.20
2018-09-01T03:19:01.529Z,62.30
2018-09-01T03:21:29.879Z,62.30
2018-09-01T03:23:58.308Z,62.30
2018-09-01T03:26:26.925Z,62.40
2018-09-01T03:28:55.299Z,62.60
2018-09-01T03:31:23.720Z,62.70
2018-09-01T03:33:52.320Z,62.70
2018-09-01T03:36:21.030Z,62.40
2018-09-01T03:38:49.644Z,62.40
2018-09-01T03:41:18.098Z,62.40
2018-09-01T03:43:46.501Z,62.20
2018-09-01T03:46:14.885Z,62.30
2018-09-01T03:48:43.441Z,62.40
2018-09-01T03:51:11.935Z,62.50
2018-09-01T03:53:40.605Z,62.70
2018-09-01T03:56:09.103Z,62.80
2018-09-01T03:58:37.562Z,62.90
2018-09-01T04:01:05.983Z,63.60
2018-09-01T04:03:34.491Z,63.60
2018-09-01T04:06:03.021Z,63.50
2018-09-01T04:08:31.489Z,63.60
2018-09-01T04:11:00.032Z,63.50
2018-09-01T04:13:28.617Z,63.70
2018-09-01T04:15:57.204Z,63.70
2018-09-01T04:18:32.074Z,63.70
2018-09-01T04:21:00.740Z,64.00
2018-09-01T04:23:29.521Z,64.20
2018-09-01T04:25:58.387Z,63.80
2018-09-01T04:28:27.079Z,64.10
2018-09-01T04:30:56.937Z,64.30
2018-09-01T04:33:25.975Z,64.60
2018-09-01T04:35:54.796Z,64.50
2018-09-01T04:38:23.153Z,64.60
2018-09-01T04:40:51.806Z,64.10
2018-09-01T04:43:20.312Z,64.20
2018-09-01T04:45:48.999Z,64.60
2018-09-01T04:48:17.932Z,64.60
2018-09-01T04:50:46.994Z,64.60
2018-09-01T04:53:15.949Z,64.30
2018-09-01T04:55:44.621Z,64.20
2018-09-01T04:58:13.661Z,64.00
2018-09-01T05:00:42.546Z,64.20
2018-09-01T05:03:10.977Z,64.40
2018-09-01T05:05:39.503Z,64.40
2018-09-01T05:08:08.041Z,64.40
2018-09-01T05:10:36.415Z,64.30
2018-09-01T05:13:04.925Z,65.00
2018-09-01T05:15:33.332Z,65.20
2018-09-01T05:18:01.709Z,65.40
2018-09-01T05:20:30.061Z,65.30
2018-09-01T05:22:58.796Z,65.10
2018-09-01T05:25:27.802Z,65.30
2018-09-01T05:27:56.374Z,65.40
2018-09-01T05:30:25.234Z,65.30
2018-09-01T05:32:54.225Z,65.40
2018-09-01T05:35:22.670Z,65.50
2018-09-01T05:37:51.050Z,65.50
2018-09-01T05:40:19.496Z,65.60
2018-09-01T05:42:47.990Z,65.60
2018-09-01T05:45:16.623Z,65.70
2018-09-01T05:47:44.972Z,65.70
2018-09-01T05:50:13.330Z,65.70
2018-09-01T05:52:41.761Z,65.60
2018-09-01T05:55:10.135Z,65.50
2018-09-01T05:57:38.554Z,65.50
2018-09-01T06:00:08.110Z,65.40
2018-09-01T06:02:36.567Z,65.60
2018-09-01T06:05:06.183Z,65.80
2018-09-01T06:07:34.972Z,66.00
2018-09-01T06:10:03.999Z,66.10
2018-09-01T06:12:32.587Z,66.40
2018-09-01T06:15:01.188Z,66.40
2018-09-01T06:17:29.588Z,66.30
2018-09-01T06:19:57.874Z,66.70
2018-09-01T06:22:26.263Z,66.70
2018-09-01T06:24:54.668Z,66.80
2018-09-01T06:27:58.679Z,66.90
2018-09-01T06:30:30.414Z,66.90
2018-09-01T06:32:59.234Z,67.20
2018-09-01T06:35:27.540Z,67.20
2018-09-01T06:37:55.943Z,67.20
2018-09-01T06:40:24.464Z,67.00
2018-09-01T06:42:54.121Z,66.70
2018-09-01T06:45:22.837Z,66.30
2018-09-01T06:47:51.275Z,66.00
2018-09-01T06:50:19.631Z,65.90
2018-09-01T06:52:48.584Z,65.50
2018-09-01T06:55:16.969Z,65.80
2018-09-01T06:57:45.414Z,65.70
2018-09-01T07:00:13.853Z,65.30
2018-09-01T07:02:42.326Z,65.30
2018-09-01T07:05:10.707Z,65.50
2018-09-01T07:07:39.323Z,65.30
2018-09-01T07:10:07.787Z,65.30
2018-09-01T07:12:36.186Z,65.20
2018-09-01T07:15:04.645Z,64.60
2018-09-01T07:17:33.067Z,64.80
2018-09-01T07:20:01.522Z,64.50
2018-09-01T07:22:29.927Z,64.90
2018-09-01T07:24:58.303Z,64.10
2018-09-01T07:27:26.752Z,64.20
2018-09-01T07:29:55.259Z,64.20
2018-09-01T07:32:23.938Z,63.90
2018-09-01T07:34:52.501Z,63.40
2018-09-01T07:37:20.921Z,62.70
2018-09-01T07:39:49.271Z,62.50
2018-09-01T07:42:17.891Z,62.30
2018-09-01T07:44:46.403Z,61.40
2018-09-01T07:47:14.855Z,60.70
2018-09-01T07:49:43.293Z,61.00
2018-09-01T07:52:11.746Z,60.80
2018-09-01T07:54:40.478Z,60.30
2018-09-01T07:57:08.778Z,60.50
2018-09-01T07:59:37.298Z,60.70
2018-09-01T08:02:05.791Z,59.00
2018-09-01T08:04:34.258Z,58.80
2018-09-01T08:07:02.659Z,59.70
2018-09-01T08:09:31.890Z,59.60
2018-09-01T08:12:00.322Z,59.30
2018-09-01T08:14:28.787Z,59.40
2018-09-01T08:16:57.402Z,59.70
2018-09-01T08:19:25.950Z,59.60
2018-09-01T08:21:54.373Z,59.10
2018-09-01T08:24:22.796Z,58.80
2018-09-01T08:26:51.533Z,57.60
2018-09-01T08:29:20.171Z,57.80
2018-09-01T08:31:48.673Z,55.80
2018-09-01T08:34:17.047Z,56.00
2018-09-01T08:36:45.399Z,55.80
2018-09-01T08:39:13.752Z,55.40
2018-09-01T08:41:42.131Z,55.60
2018-09-01T08:44:10.498Z,56.50
2018-09-01T08:46:38.975Z,56.40
2018-09-01T08:49:07.443Z,56.70
2018-09-01T08:51:35.847Z,57.00
2018-09-01T08:54:04.204Z,56.40
2018-09-01T08:56:32.614Z,56.30
2018-09-01T08:59:01.003Z,55.90
2018-09-01T09:01:29.516Z,55.70
2018-09-01T09:03:57.938Z,55.40
2018-09-01T09:06:26.311Z,55.20
2018-09-01T09:08:54.907Z,54.60
2018-09-01T09:11:23.478Z,53.80
2018-09-01T09:13:52.011Z,53.90
2018-09-01T09:16:20.424Z,52.00
2018-09-01T09:18:48.985Z,52.90
2018-09-01T09:21:17.481Z,53.20
2018-09-01T09:23:45.847Z,52.90
2018-09-01T09:26:14.432Z,52.80
2018-09-01T09:28:43.019Z,52.90
2018-09-01T09:31:11.486Z,52.80
2018-09-01T09:33:39.968Z,51.90
2018-09-01T09:36:08.480Z,49.60
2018-09-01T09:38:37.100Z,49.00
2018-09-01T09:41:06.184Z,50.40
2018-09-01T09:43:35.133Z,50.00
2018-09-01T09:46:03.685Z,48.80
2018-09-01T09:48:32.539Z,50.00
2018-09-01T09:51:01.187Z,48.80
2018-09-01T09:53:29.946Z,50.00
2018-09-01T09:55:58.544Z,48.60
2018-09-01T09:58:27.437Z,49.40
2018-09-01T10:00:57.058Z,48.50
2018-09-01T10:03:25.494Z,50.00
2018-09-01T10:05:54.257Z,49.80
2018-09-01T10:08:22.946Z,49.10
2018-09-01T10:10:52.121Z,49.80
2018-09-01T10:13:20.522Z,48.70
2018-09-01T10:15:49.145Z,48.70
2018-09-01T10:18:17.587Z,49.20
2018-09-01T10:20:46.048Z,49.00
2018-09-01T10:23:14.673Z,48.80
2018-09-01T10:25:43.442Z,49.40
2018-09-01T10:28:11.973Z,49.60
2018-09-01T10:30:40.660Z,48.90
2018-09-01T10:33:09.248Z,49.80
2018-09-01T10:35:37.751Z,49.30
2018-09-01T10:38:06.574Z,49.20
2018-09-01T10:40:35.729Z,48.90
2018-09-01T10:43:04.231Z,49.30
2018-09-01T10:45:32.966Z,48.70
2018-09-01T10:48:01.602Z,48.80
2018-09-01T10:50:30.335Z,49.60
2018-09-01T10:52:58.827Z,49.50
2018-09-01T10:55:27.495Z,49.40
2018-09-01T10:57:55.940Z,49.80
2018-09-01T11:00:24.473Z,49.30
2018-09-01T11:02:54.060Z,49.30
2018-09-01T11:05:23.517Z,49.80
2018-09-01T11:10:21.172Z,47.70
2018-09-01T11:12:49.640Z,45.60
2018-09-01T11:15:18.223Z,46.50
2018-09-01T11:17:46.702Z,46.10
2018-09-01T11:20:15.384Z,45.50
2018-09-01T11:22:43.984Z,43.60
2018-09-01T11:25:12.541Z,43.70
2018-09-01T11:27:41.291Z,43.80
2018-09-01T11:30:10.967Z,44.40
2018-09-01T11:32:39.361Z,43.50
2018-09-01T11:35:08.246Z,42.80
2018-09-01T11:37:36.810Z,44.10
2018-09-01T11:40:05.792Z,43.10
2018-09-01T11:42:34.667Z,42.20
2018-09-01T11:45:03.360Z,41.50
2018-09-01T11:47:31.925Z,41.80
2018-09-01T11:50:00.864Z,43.00
2018-09-01T11:52:29.748Z,42.90
2018-09-01T11:54:58.372Z,42.20
2018-09-01T11:57:26.996Z,42.60
2018-09-01T11:59:55.811Z,42.70
2018-09-01T12:02:24.291Z,42.30
2018-09-01T12:04:52.792Z,42.50
2018-09-01T12:07:21.522Z,43.70
2018-09-01T12:09:50.315Z,43.30
2018-09-01T12:12:18.855Z,42.60
2018-09-01T12:14:47.342Z,42.30
2018-09-01T12:17:15.967Z,43.10
2018-09-01T12:19:44.347Z,43.00
2018-09-01T12:22:12.872Z,42.70
2018-09-01T12:24:41.375Z,42.10
2018-09-01T12:27:09.942Z,41.40
2018-09-01T12:29:38.332Z,41.30
2018-09-01T12:32:07.217Z,40.60
2018-09-01T12:34:35.647Z,40.10
2018-09-01T12:37:04.377Z,38.90
2018-09-01T12:39:32.786Z,37.90
2018-09-01T12:42:01.857Z,37.60
2018-09-01T12:44:31.191Z,36.80
2018-09-01T12:46:59.946Z,37.10
2018-09-01T12:49:28.342Z,36.40
2018-09-01T12:51:56.826Z,35.60
2018-09-01T12:54:25.336Z,35.70
2018-09-01T12:56:53.775Z,35.70
2018-09-01T12:59:22.749Z,35.00
2018-09-01T13:01:51.084Z,36.00
2018-09-01T13:04:20.811Z,36.20
2018-09-01T13:06:50.290Z,36.20
2018-09-01T13:09:19.056Z,34.50
2018-09-01T13:11:48.216Z,35.70
2018-09-01T13:14:17.255Z,35.70
2018-09-01T13:16:46.480Z,36.50
2018-09-01T13:19:15.855Z,35.90
2018-09-01T13:21:45.630Z,36.80
2018-09-01T13:24:15.271Z,38.50
2018-09-01T13:26:44.733Z,37.80
2018-09-01T13:29:13.925Z,38.00
2018-09-01T13:31:43.312Z,37.40
2018-09-01T13:34:12.629Z,37.40
2018-09-01T13:36:42.459Z,36.80
2018-09-01T13:39:11.947Z,36.80
2018-09-01T13:41:41.727Z,36.80
2018-09-01T13:44:11.310Z,36.10
2018-09-01T13:46:40.464Z,35.20
2018-09-01T13:49:09.811Z,35.30
2018-09-01T13:51:39.482Z,34.60
2018-09-01T13:54:08.485Z,33.30
2018-09-01T13:56:38.036Z,33.60
2018-09-01T13:59:07.456Z,34.10
2018-09-01T14:01:36.389Z,34.20
2018-09-01T14:04:06.109Z,34.20
2018-09-01T14:06:35.207Z,33.60
2018-09-01T14:09:05.618Z,33.20
2018-09-01T14:11:34.182Z,32.40
2018-09-01T14:14:02.672Z,32.70
2018-09-01T14:16:31.438Z,34.70
2018-09-01T14:18:59.967Z,35.00
2018-09-01T14:21:28.369Z,35.10
2018-09-01T14:23:56.812Z,35.90
2018-09-01T14:26:25.168Z,36.30
2018-09-01T14:28:53.640Z,37.20
2018-09-01T14:31:22.035Z,38.30
2018-09-01T14:33:50.638Z,38.40
2018-09-01T14:36:19.130Z,38.10
2018-09-01T14:38:47.511Z,38.30
2018-09-01T14:41:15.867Z,38.30
2018-09-01T14:43:44.334Z,39.00
2018-09-01T14:46:13.109Z,39.20
2018-09-01T14:48:41.513Z,40.00
2018-09-01T14:51:10.222Z,39.90
2018-09-01T14:53:38.601Z,39.50
2018-09-01T14:56:07.296Z,39.50
2018-09-01T14:58:36.731Z,38.60
2018-09-01T15:01:05.390Z,36.30
2018-09-01T15:03:33.816Z,37.30
2018-09-01T15:06:02.413Z,36.60
2018-09-01T15:08:31.275Z,36.50
2018-09-01T15:10:59.790Z,36.20
2018-09-01T15:13:28.220Z,36.60
2018-09-01T15:15:56.611Z,35.90
2018-09-01T15:18:25.064Z,36.10
2018-09-01T15:20:53.437Z,35.80
2018-09-01T15:23:21.858Z,36.10
2018-09-01T15:25:50.335Z,35.60
2018-09-01T15:28:18.762Z,35.90
2018-09-01T15:30:47.293Z,36.50
2018-09-01T15:33:15.840Z,36.20
2018-09-01T15:35:44.359Z,36.10
2018-09-01T15:38:12.729Z,37.00
2018-09-01T15:40:41.377Z,36.70
2018-09-01T15:43:09.794Z,36.90
2018-09-01T15:45:38.430Z,37.80
2018-09-01T15:48:07.536Z,37.90
2018-09-01T15:50:36.473Z,37.80
2018-09-01T15:53:05.552Z,38.20
2018-09-01T15:55:34.231Z,38.80
2018-09-01T15:58:03.922Z,39.20
2018-09-01T16:00:32.607Z,40.10
2018-09-01T16:03:01.619Z,40.00
2018-09-01T16:05:30.740Z,40.40
2018-09-01T16:07:59.475Z,41.20
2018-09-01T16:10:28.407Z,41.10
2018-09-01T16:12:57.807Z,40.30
2018-09-01T16:15:27.884Z,40.00
2018-09-01T16:17:56.998Z,40.20
2018-09-01T16:20:25.797Z,41.10
2018-09-01T16:22:54.916Z,40.10
2018-09-01T16:25:23.591Z,39.20
2018-09-01T16:27:52.302Z,39.10
2018-09-01T16:30:20.944Z,38.90
2018-09-01T16:32:49.948Z,38.90
2018-09-01T16:35:19.190Z,38.80
2018-09-01T16:37:48.940Z,38.40
2018-09-01T16:40:17.694Z,38.10
2018-09-01T16:42:46.351Z,38.20
2018-09-01T16:45:15.197Z,38.30
2018-09-01T16:47:44.236Z,37.90
2018-09-01T16:50:14.445Z,38.50
2018-09-01T16:52:44.563Z,38.30
2018-09-01T16:55:14.572Z,38.30
2018-09-01T16:57:44.604Z,38.60
2018-09-01T17:00:14.981Z,38.90
2018-09-01T17:02:45.386Z,38.90
2018-09-01T17:05:15.551Z,39.00
2018-09-01T17:07:45.573Z,38.90
2018-09-01T17:10:15.632Z,38.60
2018-09-01T17:12:45.421Z,39.10
2018-09-01T17:15:15.450Z,39.50
2018-09-01T17:17:45.180Z,39.50
2018-09-01T17:20:14.966Z,39.70
2018-09-01T17:22:44.381Z,39.90
2018-09-01T17:25:14.195Z,40.00
2018-09-01T17:27:44.121Z,40.50
2018-09-01T17:30:13.706Z,40.40
2018-09-01T17:32:43.645Z,40.60
2018-09-01T17:35:13.357Z,41.00
2018-09-01T17:37:43.264Z,41.50
2018-09-01T17:40:12.502Z,41.50
2018-09-01T17:42:42.081Z,42.10
2018-09-01T17:45:10.991Z,42.30
2018-09-01T17:47:40.228Z,42.30
2018-09-01T17:50:09.468Z,43.00
2018-09-01T17:52:39.587Z,43.10
2018-09-01T17:55:08.991Z,43.40
2018-09-01T17:57:38.229Z,43.40
2018-09-01T18:00:07.184Z,44.00
2018-09-01T18:02:36.525Z,44.10
2018-09-01T18:05:05.410Z,44.20
2018-09-01T18:07:34.207Z,44.50
2018-09-01T18:10:03.102Z,44.80
2018-09-01T18:12:31.648Z,44.80
2018-09-01T18:15:00.103Z,44.90
2018-09-01T18:17:31.208Z,45.20
2018-09-01T18:19:59.628Z,45.00
2018-09-01T18:22:28.216Z,45.30
2018-09-01T18:24:56.694Z,45.60
2018-09-01T18:27:25.157Z,45.70
2018-09-01T18:29:53.584Z,45.90
2018-09-01T18:32:22.000Z,46.20
2018-09-01T18:34:50.435Z,46.50
2018-09-01T18:37:19.209Z,46.70
2018-09-01T18:39:47.745Z,46.80
2018-09-01T18:42:16.370Z,46.90
2018-09-01T18:44:45.221Z,47.00
2018-09-01T18:47:13.795Z,47.30
2018-09-01T18:49:42.321Z,47.50
2018-09-01T18:52:10.944Z,47.60
2018-09-01T18:54:39.550Z,47.80
2018-09-01T18:57:08.064Z,47.80
2018-09-01T18:59:36.769Z,48.50
2018-09-01T19:02:05.351Z,48.20
2018-09-01T19:04:34.044Z,48.40
2018-09-01T19:07:02.733Z,48.30
2018-09-01T19:09:31.457Z,48.50
2018-09-01T19:12:00.142Z,48.70
2018-09-01T19:14:28.737Z,48.70
2018-09-01T19:16:57.270Z,49.20
2018-09-01T19:19:26.001Z,49.30
2018-09-01T19:21:54.554Z,49.40
2018-09-01T19:24:23.138Z,49.80
2018-09-01T19:26:51.520Z,49.90
2018-09-01T19:29:20.181Z,50.10
2018-09-01T19:31:48.794Z,50.20
2018-09-01T19:34:17.536Z,50.60
2018-09-01T19:36:46.127Z,50.70
2018-09-01T19:39:14.570Z,50.80
2018-09-01T19:41:43.662Z,51.00
2018-09-01T19:44:12.136Z,50.80
2018-09-01T19:46:40.670Z,51.10
2018-09-01T19:49:09.378Z,51.10
2018-09-01T19:51:37.941Z,51.10
2018-09-01T19:54:06.664Z,51.30
2018-09-01T19:56:35.410Z,51.60
2018-09-01T19:59:04.100Z,52.00
2018-09-01T20:01:32.650Z,52.10
2018-09-01T20:04:01.516Z,52.10
2018-09-01T20:06:30.143Z,52.20
2018-09-01T20:08:58.663Z,52.40
2018-09-01T20:11:27.138Z,52.70
2018-09-01T20:13:55.732Z,52.70
2018-09-01T20:16:24.139Z,53.00
2018-09-01T20:18:52.839Z,53.10
2018-09-01T20:21:21.262Z,53.30
2018-09-01T20:23:49.751Z,53.50
2018-09-01T20:26:18.219Z,53.70
2018-09-01T20:28:46.684Z,53.80
2018-09-01T20:31:15.248Z,54.00
2018-09-01T20:33:44.532Z,54.20
2018-09-01T20:36:20.048Z,54.30
2018-09-01T20:38:48.702Z,54.40
2018-09-01T20:41:17.343Z,54.60
2018-09-01T20:43:45.794Z,54.70
2018-09-01T20:46:14.187Z,55.00
2018-09-01T20:48:42.699Z,55.50
2018-09-01T20:51:11.282Z,55.10
2018-09-01T20:53:40.014Z,55.20
2018-09-01T20:56:08.501Z,55.40
2018-09-01T20:58:37.049Z,55.50
2018-09-01T21:01:05.576Z,55.70
2018-09-01T21:03:34.187Z,56.00
2018-09-01T21:06:02.625Z,56.00
2018-09-01T21:08:31.163Z,56.10
2018-09-01T21:10:59.629Z,56.20
2018-09-01T21:13:28.332Z,56.40
2018-09-01T21:15:56.824Z,56.50
2018-09-01T21:18:25.310Z,56.60
2018-09-01T21:20:53.900Z,56.70
2018-09-01T21:23:22.444Z,56.90
2018-09-01T21:25:51.202Z,57.00
2018-09-01T21:28:19.968Z,57.10
2018-09-01T21:30:48.514Z,57.30
2018-09-01T21:33:16.987Z,57.40
2018-09-01T21:35:45.365Z,57.40
2018-09-01T21:38:13.790Z,57.50
2018-09-01T21:40:42.272Z,57.50
2018-09-01T21:43:10.897Z,57.70
2018-09-01T21:45:39.331Z,57.70
2018-09-01T21:48:07.787Z,57.90
2018-09-01T21:50:36.291Z,58.00
2018-09-01T21:53:04.801Z,58.00
2018-09-01T21:55:33.315Z,58.00
2018-09-01T21:58:01.806Z,58.20
2018-09-01T22:00:30.244Z,58.20
2018-09-01T22:02:58.627Z,58.30
2018-09-01T22:05:26.999Z,58.40
2018-09-01T22:07:55.672Z,58.50
2018-09-01T22:10:24.191Z,58.60
2018-09-01T22:12:52.885Z,59.10
2018-09-01T22:15:21.371Z,58.80
2018-09-01T22:17:49.830Z,58.90
2018-09-01T22:20:18.471Z,59.00
2018-09-01T22:22:47.007Z,59.10
2018-09-01T22:25:15.628Z,59.10
2018-09-01T22:27:44.414Z,59.20
2018-09-01T22:30:13.341Z,59.30
2018-09-01T22:32:41.949Z,59.40
2018-09-01T22:35:10.546Z,59.50
2018-09-01T22:37:39.187Z,59.50
2018-09-01T22:40:07.870Z,59.50
2018-09-01T22:42:36.406Z,59.60
2018-09-01T22:45:05.462Z,59.70
2018-09-01T22:47:35.189Z,59.70
2018-09-01T22:50:03.734Z,59.80
2018-09-01T22:52:32.332Z,59.80
2018-09-01T22:55:00.754Z,60.00
2018-09-01T22:57:29.166Z,60.00
2018-09-01T22:59:57.589Z,60.00
2018-09-01T23:02:26.032Z,60.00
2018-09-01T23:04:54.654Z,60.10
2018-09-01T23:07:23.111Z,60.10
2018-09-01T23:09:51.613Z,60.30
2018-09-01T23:12:20.551Z,60.40
2018-09-01T23:14:49.508Z,60.50
2018-09-01T23:17:17.927Z,60.60
2018-09-01T23:19:46.541Z,60.70
2018-09-01T23:22:15.159Z,60.90
2018-09-01T23:24:44.101Z,60.90
2018-09-01T23:27:12.992Z,60.90
2018-09-01T23:29:41.450Z,60.90
2018-09-01T23:32:09.913Z,61.00
2018-09-01T23:34:38.600Z,61.00
2018-09-01T23:37:07.397Z,61.00
2018-09-01T23:39:35.878Z,61.10
2018-09-01T23:42:04.714Z,61.20
2018-09-01T23:44:33.785Z,61.40
2018-09-01T23:47:02.956Z,61.70
2018-09-01T23:49:32.165Z,61.70
2018-09-01T23:52:01.228Z,61.60
2018-09-01T23:54:29.974Z,61.80
2018-09-01T23:56:58.660Z,61.90
2018-09-01T23:59:27.485Z,62.00
